createdAt,value
2022-12-24T00:01:44.842Z,98128.83
2022-12-24T00:04:11.729Z,98127.84
2022-12-24T00:06:38.716Z,98126.33
2022-12-24T00:09:05.747Z,98128.09
2022-12-24T00:11:32.720Z,98131.42
2022-12-24T00:13:59.760Z,98131.93
2022-12-24T00:16:27.490Z,98133.38
2022-12-24T00:18:54.355Z,98132.96
2022-12-24T00:21:21.392Z,98142.17
2022-12-24T00:23:48.365Z,98142.77
2022-12-24T00:26:15.340Z,98143.23
2022-12-24T00:28:42.357Z,98143.86
2022-12-24T00:31:12.933Z,98140.60
2022-12-24T00:33:40.204Z,98147.14
2022-12-24T00:36:08.952Z,98155.44
2022-12-24T00:38:36.447Z,98157.09
2022-12-24T00:41:06.149Z,98155.50
2022-12-24T00:43:33.174Z,98153.66
2022-12-24T00:46:00.248Z,98152.52
2022-12-24T00:48:27.229Z,98154.66
2022-12-24T00:50:54.311Z,98153.02
2022-12-24T00:53:21.383Z,98150.80
2022-12-24T00:55:48.283Z,98148.23
2022-12-24T00:58:15.534Z,98148.52
2022-12-24T01:00:42.392Z,98148.91
2022-12-24T01:03:09.485Z,98145.64
2022-12-24T01:05:36.731Z,98142.55
2022-12-24T01:08:03.834Z,98140.85
2022-12-24T01:10:30.796Z,98138.36
2022-12-24T01:13:02.336Z,98134.11
2022-12-24T01:15:29.655Z,98126.99
2022-12-24T01:17:57.960Z,98123.34
2022-12-24T01:20:31.051Z,98125.66
2022-12-24T01:22:58.467Z,98119.21
2022-12-24T01:25:25.442Z,98115.26
2022-12-24T01:27:52.384Z,98115.77
2022-12-24T01:30:19.555Z,98110.86
2022-12-24T01:32:46.488Z,98108.86
2022-12-24T01:35:13.622Z,98106.73
2022-12-24T01:37:42.600Z,98107.27
2022-12-24T01:40:34.933Z,98105.36
2022-12-24T01:43:21.064Z,98099.21
2022-12-24T01:45:53.792Z,98096.50
2022-12-24T01:48:33.191Z,98093.26
2022-12-24T01:51:18.952Z,98082.27
2022-12-24T01:53:52.055Z,98069.84
2022-12-24T01:56:20.767Z,98058.98
2022-12-24T01:58:53.926Z,98051.49
2022-12-24T02:01:20.975Z,98045.76
2022-12-24T02:03:48.161Z,98043.14
2022-12-24T02:06:17.490Z,98045.43
2022-12-24T02:08:45.106Z,98049.21
2022-12-24T02:11:21.853Z,98052.65
2022-12-24T02:13:59.952Z,98054.63
2022-12-24T02:17:04.252Z,98053.46
2022-12-24T02:19:57.470Z,98064.65
2022-12-24T02:22:52.257Z,98070.04
2022-12-24T02:25:41.210Z,98074.66
2022-12-24T02:28:26.795Z,98076.46
2022-12-24T02:31:02.185Z,98072.84
2022-12-24T02:33:32.986Z,98075.05
2022-12-24T02:36:31.117Z,98076.40
2022-12-24T02:39:06.051Z,98077.88
2022-12-24T02:41:57.275Z,98072.83
2022-12-24T02:44:28.229Z,98064.58
2022-12-24T02:46:59.031Z,98058.37
2022-12-24T02:49:25.984Z,98062.55
2022-12-24T02:51:52.843Z,98064.95
2022-12-24T02:54:19.984Z,98061.26
2022-12-24T02:57:13.610Z,98060.48
2022-12-24T03:00:05.055Z,98057.47
2022-12-24T03:02:53.008Z,98059.21
2022-12-24T03:05:23.313Z,98064.49
2022-12-24T03:08:04.795Z,98058.66
2022-12-24T03:11:01.824Z,98064.48
2022-12-24T03:13:29.399Z,98051.13
2022-12-24T03:15:56.442Z,98060.80
2022-12-24T03:18:26.488Z,98059.77
2022-12-24T03:21:07.034Z,98060.85
2022-12-24T03:23:34.633Z,98061.77
2022-12-24T03:26:06.957Z,98061.73
2022-12-24T03:28:36.319Z,98060.11
2022-12-24T03:31:05.860Z,98060.98
2022-12-24T03:33:34.211Z,98063.96
2022-12-24T03:36:02.223Z,98064.46
2022-12-24T03:38:29.796Z,98063.18
2022-12-24T03:40:56.782Z,98063.58
2022-12-24T03:43:23.797Z,98069.03
2022-12-24T03:45:50.799Z,98067.27
2022-12-24T03:48:17.696Z,98065.39
2022-12-24T03:50:44.774Z,98071.09
2022-12-24T03:53:11.672Z,98071.33
2022-12-24T03:55:39.265Z,98072.45
2022-12-24T03:58:06.598Z,98071.10
2022-12-24T04:00:33.650Z,98070.73
2022-12-24T04:03:00.633Z,98069.29
2022-12-24T04:05:27.709Z,98066.48
2022-12-24T04:07:54.848Z,98068.84
2022-12-24T04:10:21.784Z,98065.04
2022-12-24T04:12:48.791Z,98060.17
2022-12-24T04:15:15.675Z,98056.27
2022-12-24T04:17:42.533Z,98055.19
2022-12-24T04:20:10.084Z,98053.90
2022-12-24T04:22:37.007Z,98046.22
2022-12-24T04:25:04.113Z,98042.85
2022-12-24T04:27:31.086Z,98043.89
2022-12-24T04:29:58.232Z,98044.06
2022-12-24T04:32:26.978Z,98049.83
2022-12-24T04:34:54.203Z,98043.87
2022-12-24T04:37:21.190Z,98042.30
2022-12-24T04:39:48.168Z,98041.45
2022-12-24T04:42:15.175Z,98043.58
2022-12-24T04:44:42.088Z,98042.50
2022-12-24T04:47:10.299Z,98050.25
2022-12-24T04:49:37.287Z,98049.06
2022-12-24T04:52:04.672Z,98046.06
2022-12-24T04:54:31.579Z,98040.75
2022-12-24T04:56:58.517Z,98036.96
2022-12-24T04:59:25.435Z,98043.86
2022-12-24T05:01:52.492Z,98047.97
2022-12-24T05:04:19.494Z,98045.20
2022-12-24T05:06:46.424Z,98045.86
2022-12-24T05:09:13.504Z,98044.94
2022-12-24T05:11:40.397Z,98050.68
2022-12-24T05:14:07.406Z,98052.27
2022-12-24T05:16:34.345Z,98055.67
2022-12-24T05:19:01.340Z,98051.52
2022-12-24T05:21:28.210Z,98052.41
2022-12-24T05:24:14.449Z,98055.52
2022-12-24T05:26:48.102Z,98053.48
2022-12-24T05:29:15.460Z,98057.21
2022-12-24T05:31:44.534Z,98063.02
2022-12-24T05:34:13.559Z,98061.33
2022-12-24T05:36:41.365Z,98061.31
2022-12-24T05:39:15.695Z,98064.11
2022-12-24T05:41:44.322Z,98065.56
2022-12-24T05:44:11.338Z,98067.29
2022-12-24T05:46:39.039Z,98068.27
2022-12-24T05:49:06.004Z,98067.86
2022-12-24T05:51:33.505Z,98073.35
2022-12-24T05:54:00.520Z,98076.41
2022-12-24T05:56:27.548Z,98078.05
2022-12-24T05:58:54.684Z,98077.55
2022-12-24T06:01:23.154Z,98078.27
2022-12-24T06:03:51.608Z,98081.05
2022-12-24T06:06:22.930Z,98079.09
2022-12-24T06:08:52.593Z,98083.66
2022-12-24T06:11:23.749Z,98087.38
2022-12-24T06:13:52.209Z,98089.47
2022-12-24T06:16:20.875Z,98091.19
2022-12-24T06:18:47.984Z,98090.80
2022-12-24T06:21:16.010Z,98094.97
2022-12-24T06:23:44.612Z,98096.91
2022-12-24T06:26:15.315Z,98105.58
2022-12-24T06:28:43.662Z,98109.90
2022-12-24T06:31:14.381Z,98111.25
2022-12-24T06:33:42.003Z,98113.62
2022-12-24T06:36:17.266Z,98116.55
2022-12-24T06:38:47.200Z,98118.20
2022-12-24T06:41:15.883Z,98118.73
2022-12-24T06:43:45.377Z,98119.27
2022-12-24T06:46:15.743Z,98119.38
2022-12-24T06:48:44.811Z,98115.42
2022-12-24T06:51:13.439Z,98116.04
2022-12-24T06:53:40.654Z,98116.98
2022-12-24T06:56:11.478Z,98123.52
2022-12-24T06:58:40.232Z,98124.21
2022-12-24T07:01:11.747Z,98124.33
2022-12-24T07:03:42.363Z,98123.66
2022-12-24T07:06:25.104Z,98129.38
2022-12-24T07:08:53.043Z,98133.48
2022-12-24T07:11:21.619Z,98135.52
2022-12-24T07:13:48.761Z,98138.63
2022-12-24T07:16:16.048Z,98140.00
2022-12-24T07:18:43.212Z,98146.15
2022-12-24T07:21:10.931Z,98146.63
2022-12-24T07:23:38.064Z,98149.94
2022-12-24T07:26:06.029Z,98150.91
2022-12-24T07:28:33.139Z,98154.90
2022-12-24T07:31:01.959Z,98153.48
2022-12-24T07:33:29.250Z,98155.89
2022-12-24T07:36:00.081Z,98161.36
2022-12-24T07:38:27.577Z,98159.08
2022-12-24T07:40:54.612Z,98162.38
2022-12-24T07:43:21.561Z,98171.02
2022-12-24T07:45:48.917Z,98174.90
2022-12-24T07:48:15.928Z,98179.20
2022-12-24T07:50:42.891Z,98181.86
2022-12-24T07:53:09.798Z,98181.64
2022-12-24T07:55:36.703Z,98177.45
2022-12-24T07:58:03.652Z,98176.84
2022-12-24T08:00:30.715Z,98171.33
2022-12-24T08:02:59.692Z,98172.66
2022-12-24T08:05:27.477Z,98175.92
2022-12-24T08:07:54.878Z,98179.27
2022-12-24T08:10:21.966Z,98174.96
2022-12-24T08:12:49.531Z,98175.52
2022-12-24T08:15:16.706Z,98179.16
2022-12-24T08:17:44.667Z,98182.06
2022-12-24T08:20:11.739Z,98185.95
2022-12-24T08:22:38.823Z,98180.66
2022-12-24T08:25:06.337Z,98179.21
2022-12-24T08:27:33.311Z,98185.55
2022-12-24T08:30:00.265Z,98188.17
2022-12-24T08:32:27.159Z,98193.17
2022-12-24T08:34:54.175Z,98193.98
2022-12-24T08:37:21.248Z,98198.52
2022-12-24T08:39:48.252Z,98199.73
2022-12-24T08:42:15.245Z,98208.04
2022-12-24T08:44:42.302Z,98214.16
2022-12-24T08:47:09.236Z,98210.15
2022-12-24T08:49:36.195Z,98212.38
2022-12-24T08:52:03.734Z,98217.73
2022-12-24T08:54:30.671Z,98218.28
2022-12-24T08:56:57.626Z,98216.69
2022-12-24T08:59:24.748Z,98211.39
2022-12-24T09:01:51.853Z,98215.96
2022-12-24T09:04:19.754Z,98218.36
2022-12-24T09:06:46.954Z,98217.32
2022-12-24T09:09:14.005Z,98215.79
2022-12-24T09:11:57.951Z,98215.07
2022-12-24T09:14:30.031Z,98214.96
2022-12-24T09:17:03.634Z,98218.77
2022-12-24T09:19:45.904Z,98218.86
2022-12-24T09:22:18.489Z,98212.41
2022-12-24T09:24:48.135Z,98206.96
2022-12-24T09:27:37.910Z,98206.70
2022-12-24T09:30:13.222Z,98207.55
2022-12-24T09:32:42.670Z,98208.05
2022-12-24T09:35:24.593Z,98210.16
2022-12-24T09:38:44.305Z,98206.21
2022-12-24T09:41:46.933Z,98208.66
2022-12-24T09:45:20.635Z,98207.41
2022-12-24T09:47:57.265Z,98218.13
2022-12-24T09:50:51.150Z,98221.21
2022-12-24T09:53:36.027Z,98226.67
2022-12-24T09:56:11.396Z,98223.38
2022-12-24T09:58:46.219Z,98223.49
2022-12-24T10:01:16.223Z,98225.54
2022-12-24T10:03:44.626Z,98228.98
2022-12-24T10:06:15.990Z,98231.12
2022-12-24T10:09:07.513Z,98234.77
2022-12-24T10:11:40.725Z,98241.14
2022-12-24T10:14:19.657Z,98246.53
2022-12-24T10:17:13.802Z,98252.77
2022-12-24T10:20:26.698Z,98259.08
2022-12-24T10:23:20.493Z,98270.91
2022-12-24T10:26:04.130Z,98277.23
2022-12-24T10:28:41.143Z,98277.61
2022-12-24T10:31:08.358Z,98277.94
2022-12-24T10:33:51.028Z,98276.64
2022-12-24T10:36:24.605Z,98279.64
2022-12-24T10:38:51.855Z,98277.77
2022-12-24T10:41:19.149Z,98277.47
2022-12-24T10:43:48.179Z,98283.73
2022-12-24T10:46:37.505Z,98285.05
2022-12-24T10:49:12.543Z,98288.73
2022-12-24T10:51:53.444Z,98288.45
2022-12-24T10:54:27.544Z,98293.20
2022-12-24T10:57:01.113Z,98295.88
2022-12-24T10:59:52.165Z,98301.84
2022-12-24T11:02:28.796Z,98303.83
2022-12-24T11:04:59.064Z,98306.50
2022-12-24T11:07:28.699Z,98305.23
2022-12-24T11:10:07.302Z,98305.83
2022-12-24T11:12:40.160Z,98302.14
2022-12-24T11:15:19.129Z,98305.04
2022-12-24T11:18:06.103Z,98308.29
2022-12-24T11:20:35.239Z,98312.53
2022-12-24T11:23:03.335Z,98314.56
2022-12-24T11:25:39.837Z,98328.27
2022-12-24T11:28:32.616Z,98332.27
2022-12-24T11:31:20.328Z,98336.25
2022-12-24T11:33:55.055Z,98337.59
2022-12-24T11:36:26.060Z,98341.77
2022-12-24T11:38:56.448Z,98340.77
2022-12-24T11:41:26.184Z,98341.48
2022-12-24T11:44:07.120Z,98341.25
2022-12-24T11:46:38.448Z,98345.50
2022-12-24T11:49:17.827Z,98347.21
2022-12-24T11:52:17.355Z,98351.64
2022-12-24T11:55:20.492Z,98358.46
2022-12-24T11:58:02.179Z,98362.06
2022-12-24T12:00:29.962Z,98363.92
2022-12-24T12:03:02.456Z,98367.50
2022-12-24T12:05:33.212Z,98370.09
2022-12-24T12:08:14.133Z,98369.36
2022-12-24T12:10:45.035Z,98372.25
2022-12-24T12:13:17.300Z,98371.24
2022-12-24T12:15:58.103Z,98374.26
2022-12-24T12:18:55.074Z,98375.78
2022-12-24T12:21:37.557Z,98379.04
2022-12-24T12:24:19.139Z,98390.91
2022-12-24T12:26:55.002Z,98394.13
2022-12-24T12:29:33.723Z,98397.88
2022-12-24T12:32:27.534Z,98400.63
2022-12-24T12:35:16.067Z,98405.80
2022-12-24T12:37:50.979Z,98411.10
2022-12-24T12:40:18.240Z,98422.38
2022-12-24T12:43:05.185Z,98433.27
2022-12-24T12:46:03.684Z,98437.70
2022-12-24T12:48:40.137Z,98447.60
2022-12-24T12:51:53.270Z,98446.43
2022-12-24T12:54:43.781Z,98456.14
2022-12-24T12:57:14.871Z,98457.11
2022-12-24T12:59:52.753Z,98461.33
2022-12-24T13:02:23.446Z,98463.00
2022-12-24T13:05:24.960Z,98469.93
2022-12-24T13:08:17.331Z,98477.57
2022-12-24T13:10:52.822Z,98484.88
2022-12-24T13:13:35.889Z,98489.92
2022-12-24T13:16:32.132Z,98496.48
2022-12-24T13:19:17.832Z,98500.73
2022-12-24T13:21:45.806Z,98502.90
2022-12-24T13:24:15.899Z,98506.14
2022-12-24T13:26:58.715Z,98508.56
2022-12-24T13:29:35.126Z,98515.35
2022-12-24T13:32:20.511Z,98520.60
2022-12-24T13:34:50.549Z,98522.48
2022-12-24T13:37:35.727Z,98527.40
2022-12-24T13:40:09.600Z,98535.11
2022-12-24T13:42:58.513Z,98536.51
2022-12-24T13:45:28.619Z,98543.46
2022-12-24T13:47:58.401Z,98549.36
2022-12-24T13:50:34.409Z,98549.61
2022-12-24T13:53:03.202Z,98554.78
2022-12-24T13:55:31.875Z,98559.45
2022-12-24T13:58:04.705Z,98566.95
2022-12-24T14:00:42.695Z,98570.23
2022-12-24T14:03:15.320Z,98580.27
2022-12-24T14:05:43.448Z,98581.64
2022-12-24T14:08:27.142Z,98587.40
2022-12-24T14:11:25.830Z,98588.94
2022-12-24T14:14:26.503Z,98595.04
2022-12-24T14:16:57.935Z,98598.02
2022-12-24T14:19:33.686Z,98603.79
2022-12-24T14:22:28.467Z,98604.96
2022-12-24T14:25:16.084Z,98615.20
2022-12-24T14:27:43.086Z,98619.68
2022-12-24T14:30:25.307Z,98627.19
2022-12-24T14:32:54.064Z,98634.80
2022-12-24T14:35:36.786Z,98639.67
2022-12-24T14:38:20.859Z,98645.70
2022-12-24T14:41:26.709Z,98648.73
2022-12-24T14:44:15.523Z,98652.55
2022-12-24T14:47:01.839Z,98664.67
2022-12-24T14:49:35.715Z,98667.42
2022-12-24T14:53:03.394Z,98664.94
2022-12-24T14:55:30.906Z,98674.12
2022-12-24T14:58:23.737Z,98682.57
2022-12-24T15:00:53.675Z,98687.35
2022-12-24T15:03:23.854Z,98695.21
2022-12-24T15:06:06.255Z,98702.55
2022-12-24T15:08:39.616Z,98707.79
2022-12-24T15:11:09.929Z,98708.98
2022-12-24T15:13:43.714Z,98716.77
2022-12-24T15:16:15.023Z,98718.70
2022-12-24T15:18:49.096Z,98726.04
2022-12-24T15:21:29.500Z,98727.80
2022-12-24T15:23:56.797Z,98735.20
2022-12-24T15:26:34.532Z,98738.83
2022-12-24T15:29:13.386Z,98740.34
2022-12-24T15:31:40.424Z,98740.14
2022-12-24T15:34:42.169Z,98741.88
2022-12-24T15:37:29.631Z,98740.64
2022-12-24T15:40:08.910Z,98743.84
2022-12-24T15:42:41.848Z,98749.39
2022-12-24T15:45:18.055Z,98751.64
2022-12-24T15:48:06.423Z,98759.89
2022-12-24T15:50:43.162Z,98768.39
2022-12-24T15:53:25.775Z,98773.85
2022-12-24T15:56:31.770Z,98782.09
2022-12-24T15:59:24.788Z,98785.95
2022-12-24T16:01:51.987Z,98788.56
2022-12-24T16:04:27.892Z,98795.60
2022-12-24T16:07:01.474Z,98798.36
2022-12-24T16:09:34.584Z,98802.60
2022-12-24T16:12:29.313Z,98804.77
2022-12-24T16:15:00.601Z,98804.58
2022-12-24T16:17:32.852Z,98805.88
2022-12-24T16:20:05.437Z,98806.70
2022-12-24T16:22:34.666Z,98807.18
2022-12-24T16:25:25.310Z,98813.65
2022-12-24T16:27:53.211Z,98813.58
2022-12-24T16:30:21.703Z,98815.44
2022-12-24T16:32:50.525Z,98818.44
2022-12-24T16:35:25.982Z,98818.64
2022-12-24T16:37:54.650Z,98821.65
2022-12-24T16:40:26.792Z,98829.94
2022-12-24T16:43:16.423Z,98832.23
2022-12-24T16:45:46.269Z,98837.59
2022-12-24T16:48:22.954Z,98844.21
2022-12-24T16:50:52.084Z,98851.54
2022-12-24T16:53:20.785Z,98858.64
2022-12-24T16:55:50.758Z,98862.73
2022-12-24T16:58:18.853Z,98869.16
2022-12-24T17:00:46.567Z,98872.48
2022-12-24T17:03:13.888Z,98875.56
2022-12-24T17:05:42.861Z,98879.44
2022-12-24T17:08:10.859Z,98880.35
2022-12-24T17:10:38.310Z,98883.77
2022-12-24T17:13:05.338Z,98884.80
2022-12-24T17:15:32.702Z,98885.27
2022-12-24T17:17:59.663Z,98883.70
2022-12-24T17:20:26.687Z,98882.09
2022-12-24T17:22:53.953Z,98883.40
2022-12-24T17:25:21.000Z,98883.63
2022-12-24T17:27:47.871Z,98886.45
2022-12-24T17:30:15.851Z,98889.20
2022-12-24T17:32:42.829Z,98890.25
2022-12-24T17:35:10.051Z,98895.40
2022-12-24T17:37:37.241Z,98896.53
2022-12-24T17:40:04.894Z,98903.40
2022-12-24T17:42:31.940Z,98904.85
2022-12-24T17:44:58.911Z,98907.56
2022-12-24T17:47:25.827Z,98907.91
2022-12-24T17:49:53.534Z,98912.92
2022-12-24T17:52:20.546Z,98915.67
2022-12-24T17:54:47.491Z,98917.49
2022-12-24T17:57:14.487Z,98916.21
2022-12-24T17:59:41.531Z,98916.20
2022-12-24T18:02:12.065Z,98920.33
2022-12-24T18:04:39.273Z,98923.51
2022-12-24T18:07:06.455Z,98925.54
2022-12-24T18:09:33.467Z,98928.20
2022-12-24T18:12:00.934Z,98927.20
2022-12-24T18:14:27.935Z,98931.63
2022-12-24T18:16:54.859Z,98935.68
2022-12-24T18:19:21.770Z,98935.31
2022-12-24T18:21:48.804Z,98937.84
2022-12-24T18:24:15.705Z,98941.16
2022-12-24T18:26:45.155Z,98942.35
2022-12-24T18:29:13.361Z,98947.45
2022-12-24T18:31:40.936Z,98950.14
2022-12-24T18:34:12.062Z,98952.05
2022-12-24T18:36:39.288Z,98961.83
2022-12-24T18:39:06.221Z,98957.77
2022-12-24T18:41:34.856Z,98952.09
2022-12-24T18:44:01.991Z,98950.27
2022-12-24T18:46:31.577Z,98949.94
2022-12-24T18:49:00.267Z,98952.34
2022-12-24T18:51:32.220Z,98957.56
2022-12-24T18:53:59.267Z,98961.52
2022-12-24T18:56:26.424Z,98968.81
2022-12-24T18:58:59.207Z,98968.55
2022-12-24T19:01:32.140Z,98975.34
2022-12-24T19:04:02.785Z,98976.94
2022-12-24T19:06:31.365Z,98980.63
2022-12-24T19:09:00.125Z,98983.00
2022-12-24T19:11:30.854Z,98983.10
2022-12-24T19:13:59.417Z,98981.92
2022-12-24T19:16:29.001Z,98988.06
2022-12-24T19:18:56.913Z,98988.02
2022-12-24T19:21:24.203Z,98996.41
2022-12-24T19:23:51.563Z,98999.48
2022-12-24T19:26:22.384Z,99005.74
2022-12-24T19:28:50.704Z,99005.23
2022-12-24T19:31:21.572Z,99008.60
2022-12-24T19:33:55.147Z,99016.40
2022-12-24T19:36:28.405Z,99022.27
2022-12-24T19:38:57.484Z,99028.33
2022-12-24T19:41:27.527Z,99039.20
2022-12-24T19:43:57.650Z,99046.84
2022-12-24T19:46:30.212Z,99055.17
2022-12-24T19:49:00.537Z,99056.85
2022-12-24T19:51:28.797Z,99063.51
2022-12-24T19:53:57.375Z,99068.45
2022-12-24T19:56:27.214Z,99071.50
2022-12-24T19:58:56.910Z,99073.86
2022-12-24T20:01:26.449Z,99080.54
2022-12-24T20:03:54.943Z,99083.86
2022-12-24T20:06:24.889Z,99090.20
2022-12-24T20:08:56.739Z,99093.16
2022-12-24T20:11:23.658Z,99093.52
2022-12-24T20:13:50.802Z,99099.04
2022-12-24T20:16:20.607Z,99097.30
2022-12-24T20:18:53.116Z,99103.61
2022-12-24T20:21:20.991Z,99109.08
2022-12-24T20:23:48.455Z,99109.66
2022-12-24T20:26:18.351Z,99112.34
2022-12-24T20:28:46.116Z,99114.00
2022-12-24T20:31:22.436Z,99114.13
2022-12-24T20:33:49.483Z,99114.81
2022-12-24T20:36:19.739Z,99115.84
2022-12-24T20:38:46.845Z,99116.85
2022-12-24T20:41:16.398Z,99116.67
2022-12-24T20:43:48.294Z,99114.72
2022-12-24T20:46:22.102Z,99112.65
2022-12-24T20:48:51.198Z,99117.98
2022-12-24T20:51:24.755Z,99121.91
2022-12-24T20:53:55.247Z,99128.48
2022-12-24T20:56:22.823Z,99133.41
2022-12-24T20:58:50.358Z,99133.52
2022-12-24T21:01:21.040Z,99134.77
2022-12-24T21:03:48.120Z,99140.42
2022-12-24T21:06:17.376Z,99139.46
2022-12-24T21:08:46.040Z,99132.84
2022-12-24T21:11:32.145Z,99137.42
2022-12-24T21:14:01.726Z,99138.92
2022-12-24T21:16:31.468Z,99142.82
2022-12-24T21:18:59.011Z,99151.61
2022-12-24T21:21:26.093Z,99150.69
2022-12-24T21:23:53.777Z,99143.98
2022-12-24T21:26:20.787Z,99143.27
2022-12-24T21:28:48.532Z,99142.83
2022-12-24T21:31:16.088Z,99141.23
2022-12-24T21:33:43.066Z,99138.92
2022-12-24T21:36:12.235Z,99141.96
2022-12-24T21:38:39.627Z,99145.17
2022-12-24T21:41:11.852Z,99146.36
2022-12-24T21:43:39.285Z,99143.89
2022-12-24T21:46:08.494Z,99144.51
2022-12-24T21:48:56.844Z,99144.98
2022-12-24T21:51:26.090Z,99149.35
2022-12-24T21:54:11.762Z,99150.14
2022-12-24T21:56:57.637Z,99153.59
2022-12-24T21:59:27.128Z,99160.51
2022-12-24T22:01:56.127Z,99162.02
2022-12-24T22:04:24.434Z,99161.80
2022-12-24T22:07:10.436Z,99164.42
2022-12-24T22:09:57.900Z,99169.54
2022-12-24T22:12:31.651Z,99173.37
2022-12-24T22:15:01.443Z,99173.02
2022-12-24T22:17:28.459Z,99170.95
2022-12-24T22:19:55.395Z,99172.25
2022-12-24T22:22:23.347Z,99175.33
2022-12-24T22:24:50.789Z,99176.30
2022-12-24T22:27:17.850Z,99177.78
2022-12-24T22:29:44.990Z,99179.69
2022-12-24T22:32:11.973Z,99181.21
2022-12-24T22:34:38.922Z,99188.17
2022-12-24T22:37:06.045Z,99192.24
2022-12-24T22:39:33.259Z,99199.77
2022-12-24T22:42:00.273Z,99203.23
2022-12-24T22:44:27.484Z,99210.13
2022-12-24T22:46:54.395Z,99213.37
2022-12-24T22:49:21.384Z,99210.98
2022-12-24T22:51:48.504Z,99209.86
2022-12-24T22:54:15.566Z,99210.85
2022-12-24T22:56:42.575Z,99206.27
2022-12-24T22:59:13.304Z,99204.36
2022-12-24T23:01:43.551Z,99206.96
2022-12-24T23:04:11.913Z,99208.48
2022-12-24T23:06:40.068Z,99210.91
2022-12-24T23:09:10.096Z,99212.46
2022-12-24T23:11:38.635Z,99211.45
2022-12-24T23:14:24.499Z,99205.80
2022-12-24T23:16:51.505Z,99209.52
2022-12-24T23:19:18.375Z,99211.71
2022-12-24T23:21:45.243Z,99209.46
2022-12-24T23:24:12.443Z,99213.17
2022-12-24T23:26:39.927Z,99215.48
2022-12-24T23:29:06.942Z,99221.69
2022-12-24T23:31:37.140Z,99223.36
2022-12-24T23:34:04.401Z,99223.06
2022-12-24T23:36:31.326Z,99226.84
2022-12-24T23:38:58.457Z,99227.58
2022-12-24T23:41:25.415Z,99228.81
2022-12-24T23:43:52.644Z,99226.73
2022-12-24T23:46:20.746Z,99227.98
2022-12-24T23:48:48.445Z,99231.61
2022-12-24T23:51:19.199Z,99243.55
2022-12-24T23:53:46.093Z,99245.96
2022-12-24T23:56:13.254Z,99253.03
2022-12-24T23:58:41.946Z,99253.95
